Time;durP1;ratioP1;P1;durP2;ratioP2;P2;SDS_P1;SDS_P2;PMS_P1;PMS_P2;Temp;Humidity;BMP_temperature;BMP_pressure;BME280_temperature;BME280_humidity;BME280_pressure;Samples;Min_cycle;Max_cycle;Signal;HPM_P1;HPM_P2
2022/12/05 00:02:11;;;;;;;31.20;16.23;;;5.20;99.90;;;;;;5112132;27;20520;-60
2022/12/05 00:04:37;;;;;;;35.08;17.88;;;5.10;99.90;;;;;;5088385;28;20095;-60
2022/12/05 00:07:03;;;;;;;35.97;18.25;;;5.20;99.90;;;;;;5106976;28;20456;-60
2022/12/05 00:09:29;;;;;;;33.38;17.90;;;5.20;99.90;;;;;;5119416;27;20122;-60
2022/12/05 00:11:55;;;;;;;32.78;17.83;;;5.20;99.90;;;;;;5115645;27;20053;-60
2022/12/05 00:14:20;;;;;;;34.45;18.27;;;5.20;99.90;;;;;;5105389;28;20054;-60
2022/12/05 00:16:46;;;;;;;35.55;19.92;;;5.20;99.90;;;;;;5088677;28;20039;-60
2022/12/05 00:19:14;;;;;;;33.75;18.17;;;5.20;99.90;;;;;;5106336;28;20481;-60
2022/12/05 00:21:41;;;;;;;36.45;18.83;;;5.20;99.90;;;;;;5115203;27;20085;-60
2022/12/05 00:24:10;;;;;;;39.55;18.33;;;5.20;99.90;;;;;;5105978;28;20044;-60
2022/12/05 00:26:36;;;;;;;29.23;17.07;;;5.30;99.90;;;;;;5105555;28;20527;-60
2022/12/05 00:29:02;;;;;;;33.78;17.25;;;5.30;99.90;;;;;;5110493;28;20070;-60
2022/12/05 00:31:28;;;;;;;33.05;17.27;;;5.30;99.90;;;;;;5108503;28;20516;-60
2022/12/05 00:33:55;;;;;;;33.75;17.08;;;5.30;99.90;;;;;;5116500;28;20047;-60
2022/12/05 00:36:24;;;;;;;29.27;15.23;;;5.30;99.90;;;;;;5105304;28;20660;-60
2022/12/05 00:38:50;;;;;;;26.13;15.75;;;5.40;99.90;;;;;;5087819;28;20135;-60
2022/12/05 00:41:21;;;;;;;26.58;14.65;;;5.40;99.90;;;;;;5108870;28;20122;-60
2022/12/05 00:43:47;;;;;;;24.17;13.80;;;5.40;99.90;;;;;;5097731;27;20076;-60
2022/12/05 00:46:19;;;;;;;25.63;13.10;;;5.40;99.90;;;;;;5116781;27;20070;-60
2022/12/05 00:48:45;;;;;;;25.52;12.77;;;5.40;99.90;;;;;;5116620;27;20046;-60
2022/12/05 00:51:14;;;;;;;20.70;12.20;;;5.50;99.90;;;;;;5116798;27;20047;-60
2022/12/05 00:53:41;;;;;;;21.98;12.40;;;5.50;99.90;;;;;;5109594;28;20043;-60
2022/12/05 00:56:13;;;;;;;19.20;11.07;;;5.50;99.90;;;;;;5117017;27;20055;-60
2022/12/05 00:58:40;;;;;;;19.23;11.57;;;5.60;99.90;;;;;;5092353;28;20501;-60
2022/12/05 01:01:13;;;;;;;15.88;11.07;;;5.60;99.90;;;;;;5110564;27;20050;-60
2022/12/05 01:03:39;;;;;;;17.70;10.85;;;5.60;99.90;;;;;;5092506;28;20082;-60
2022/12/05 01:06:06;;;;;;;13.95;10.15;;;5.60;99.90;;;;;;5100694;27;20580;-60
2022/12/05 01:08:33;;;;;;;14.98;10.18;;;5.60;99.90;;;;;;5114262;27;20502;-60
2022/12/05 01:11:00;;;;;;;15.43;10.30;;;5.70;99.90;;;;;;5124326;27;20047;-60
2022/12/05 01:13:26;;;;;;;15.93;9.75;;;5.70;99.90;;;;;;5126767;27;20047;-60
2022/12/05 01:15:52;;;;;;;18.58;9.70;;;5.70;99.90;;;;;;5129102;27;20047;-60
2022/12/05 01:18:20;;;;;;;16.63;9.98;;;5.70;99.90;;;;;;5109204;27;20027;-60
2022/12/05 01:20:46;;;;;;;17.65;10.43;;;5.70;99.90;;;;;;5118834;27;20067;-60
2022/12/05 01:23:12;;;;;;;15.45;9.43;;;5.70;99.90;;;;;;5094510;27;20043;-60
2022/12/05 01:25:40;;;;;;;19.08;9.48;;;5.70;99.90;;;;;;5120940;27;20063;-60
2022/12/05 01:28:07;;;;;;;13.52;9.13;;;5.70;99.90;;;;;;5120337;27;20054;-60
2022/12/05 01:30:36;;;;;;;14.98;9.13;;;5.70;99.90;;;;;;5091317;28;20028;-60
2022/12/05 01:33:02;;;;;;;15.80;9.13;;;5.70;99.90;;;;;;5127191;27;20042;-60
2022/12/05 01:35:31;;;;;;;13.40;8.80;;;5.80;99.90;;;;;;5128311;27;20480;-60
2022/12/05 01:37:57;;;;;;;14.23;9.25;;;5.70;99.90;;;;;;5117795;27;20482;-60
2022/12/05 01:40:23;;;;;;;11.50;8.27;;;5.70;99.90;;;;;;5108024;28;20042;-60
2022/12/05 01:42:49;;;;;;;16.38;8.85;;;5.70;99.90;;;;;;5110956;27;20094;-60
2022/12/05 01:45:20;;;;;;;11.35;7.80;;;5.70;99.90;;;;;;5089739;28;20121;-60
2022/12/05 01:47:46;;;;;;;12.80;8.48;;;5.70;99.90;;;;;;5091028;28;20058;-60
2022/12/05 01:50:12;;;;;;;12.02;8.85;;;5.70;99.90;;;;;;5090126;28;20051;-60
2022/12/05 01:52:39;;;;;;;16.33;8.95;;;5.70;99.90;;;;;;5115907;27;20092;-60
2022/12/05 01:55:14;;;;;;;9.80;7.75;;;5.70;99.90;;;;;;5108455;28;20443;-60
2022/12/05 01:57:41;;;;;;;11.23;6.63;;;5.70;99.90;;;;;;5108005;28;20047;-60
2022/12/05 02:00:13;;;;;;;17.33;8.10;;;5.70;99.90;;;;;;5109369;28;20052;-60
2022/12/05 02:02:52;;;;;;;12.93;7.93;;;5.70;99.90;;;;;;5104844;27;20507;-60
2022/12/05 02:05:26;;;;;;;11.70;7.10;;;5.70;99.90;;;;;;5128673;27;20139;-60
2022/12/05 02:07:53;;;;;;;11.77;7.70;;;5.70;99.90;;;;;;5097968;27;20070;-60
2022/12/05 02:10:19;;;;;;;11.18;7.82;;;5.60;99.90;;;;;;5108196;27;20078;-60
2022/12/05 02:12:45;;;;;;;11.13;7.78;;;5.60;99.90;;;;;;5093073;28;20059;-60
2022/12/05 02:15:20;;;;;;;12.93;7.57;;;5.60;99.90;;;;;;5123126;27;20047;-60
2022/12/05 02:18:10;;;;;;;13.63;7.53;;;5.60;99.90;;;;;;5111648;27;20040;-60
2022/12/05 02:21:00;;;;;;;18.15;7.82;;;5.60;99.90;;;;;;5089668;28;20527;-60
2022/12/05 02:23:44;;;;;;;11.45;6.68;;;5.60;99.90;;;;;;5107218;28;20047;-60
2022/12/05 02:26:59;;;;;;;8.05;6.05;;;5.60;99.90;;;;;;5107130;27;20066;-60
2022/12/05 02:29:37;;;;;;;13.98;6.85;;;5.60;99.90;;;;;;5067438;28;20079;-60
2022/12/05 02:32:05;;;;;;;10.80;6.47;;;5.60;99.90;;;;;;5089991;28;20522;-60
2022/12/05 02:34:35;;;;;;;13.20;7.63;;;5.60;99.90;;;;;;5090418;27;20145;-60
2022/12/05 02:37:25;;;;;;;8.60;6.10;;;5.60;99.90;;;;;;5127988;27;20043;-60
2022/12/05 02:40:13;;;;;;;13.45;7.35;;;5.60;99.90;;;;;;5110921;27;20039;-60
2022/12/05 02:42:58;;;;;;;10.15;6.93;;;5.50;99.90;;;;;;5122165;27;20122;-60
2022/12/05 02:45:26;;;;;;;13.02;6.55;;;5.60;99.90;;;;;;5107118;28;20114;-60
2022/12/05 02:47:53;;;;;;;10.60;6.28;;;5.60;99.90;;;;;;5108696;27;20063;-60
2022/12/05 02:50:28;;;;;;;11.55;5.90;;;5.50;99.90;;;;;;5107508;28;20059;-60
2022/12/05 02:52:59;;;;;;;9.25;5.72;;;5.50;99.90;;;;;;5100411;27;20121;-60
2022/12/05 02:55:27;;;;;;;11.63;6.30;;;5.50;99.90;;;;;;5104502;28;20470;-60
2022/12/05 02:57:57;;;;;;;11.05;6.28;;;5.50;99.90;;;;;;5080040;28;20086;-60
2022/12/05 03:00:23;;;;;;;11.38;6.80;;;5.50;99.90;;;;;;5091674;28;20043;-60
2022/12/05 03:02:54;;;;;;;9.57;6.50;;;5.50;99.90;;;;;;5122931;27;20039;-60
2022/12/05 03:05:26;;;;;;;7.13;4.95;;;5.50;99.90;;;;;;5125436;27;20043;-60
2022/12/05 03:07:55;;;;;;;9.80;5.53;;;5.50;99.90;;;;;;5107533;28;20048;-60
2022/12/05 03:10:24;;;;;;;8.52;5.10;;;5.50;99.90;;;;;;5098692;27;20047;-60
2022/12/05 03:12:57;;;;;;;10.77;6.50;;;5.50;99.90;;;;;;5110615;27;20047;-60
2022/12/05 03:15:39;;;;;;;8.80;5.47;;;5.50;99.90;;;;;;5105655;28;20097;-60
2022/12/05 03:18:28;;;;;;;9.38;5.55;;;5.50;99.90;;;;;;5124798;27;20075;-60
2022/12/05 03:21:17;;;;;;;9.77;5.18;;;5.50;99.90;;;;;;5126188;27;20055;-60
2022/12/05 03:23:52;;;;;;;9.35;6.10;;;5.50;99.90;;;;;;5087566;28;20071;-60
2022/12/05 03:26:39;;;;;;;11.73;6.20;;;5.50;99.90;;;;;;5107945;28;20119;-60
2022/12/05 03:29:08;;;;;;;11.13;5.65;;;5.50;99.90;;;;;;5106738;28;20050;-60
2022/12/05 03:31:45;;;;;;;8.02;5.60;;;5.50;99.90;;;;;;5093578;27;20126;-60
2022/12/05 03:34:24;;;;;;;12.50;6.63;;;5.50;99.90;;;;;;5128225;27;20039;-60
2022/12/05 03:36:52;;;;;;;14.10;6.53;;;5.50;99.90;;;;;;5105754;28;20082;-60
2022/12/05 03:39:24;;;;;;;14.93;6.43;;;5.50;99.90;;;;;;5120818;27;20055;-60
2022/12/05 03:41:52;;;;;;;8.00;5.10;;;5.50;99.90;;;;;;5088207;27;20115;-60
2022/12/05 03:44:28;;;;;;;14.10;6.70;;;5.40;99.90;;;;;;5127227;27;20480;-60
2022/12/05 03:47:02;;;;;;;10.07;5.90;;;5.40;99.90;;;;;;5107414;27;20089;-60
2022/12/05 03:49:46;;;;;;;9.32;5.70;;;5.40;99.90;;;;;;5106052;28;20043;-61
2022/12/05 03:52:28;;;;;;;13.93;6.47;;;5.40;99.90;;;;;;5107570;28;20043;-60
2022/12/05 03:55:03;;;;;;;7.05;5.05;;;5.40;99.90;;;;;;5124881;27;20129;-60
2022/12/05 03:57:47;;;;;;;6.63;4.78;;;5.40;99.90;;;;;;5118967;27;20082;-60
2022/12/05 04:00:19;;;;;;;8.68;5.32;;;5.40;99.90;;;;;;5107351;28;20046;-60
2022/12/05 04:03:07;;;;;;;9.82;5.47;;;5.40;99.90;;;;;;5105787;28;20055;-60
2022/12/05 04:05:44;;;;;;;11.40;5.75;;;5.50;99.90;;;;;;5106330;28;20039;-60
2022/12/05 04:08:21;;;;;;;9.02;5.25;;;5.40;99.90;;;;;;5106411;28;20043;-60
2022/12/05 04:10:50;;;;;;;14.98;5.65;;;5.50;99.90;;;;;;5120122;27;20054;-60
2022/12/05 04:13:36;;;;;;;9.88;5.40;;;5.40;99.90;;;;;;5113872;27;20050;-60
2022/12/05 04:19:15;;;;;;;9.02;5.57;;;5.40;99.90;;;;;;5105677;28;20122;-60
2022/12/05 04:21:47;;;;;;;11.70;6.57;;;5.40;99.90;;;;;;5113790;27;20113;-60
2022/12/05 04:27:30;;;;;;;9.07;6.38;;;5.50;99.90;;;;;;5055410;28;20110;-60
2022/12/05 04:30:01;;;;;;;8.48;5.50;;;5.50;99.90;;;;;;5100053;28;20067;-60
2022/12/05 04:32:34;;;;;;;7.07;5.05;;;5.50;99.90;;;;;;5119088;27;20043;-60
2022/12/05 04:35:05;;;;;;;9.82;5.20;;;5.50;99.90;;;;;;5107977;28;20056;-60
2022/12/05 04:37:36;;;;;;;14.40;6.18;;;5.50;99.90;;;;;;5105426;28;20040;-60
2022/12/05 04:40:06;;;;;;;;;;;5.50;99.90;;;;;;5090031;28;20039;-61
2022/12/05 04:42:34;;;;;;;;;;;5.40;99.90;;;;;;5106592;28;19969;-60
2022/12/05 04:45:05;;;;;;;10.93;5.13;;;5.50;99.90;;;;;;5105550;28;20101;-60
2022/12/05 04:47:38;;;;;;;13.50;4.97;;;5.50;99.90;;;;;;5106689;28;20057;-60
2022/12/05 04:50:06;;;;;;;8.98;5.30;;;5.50;99.90;;;;;;5119618;28;20042;-61
2022/12/05 04:52:33;;;;;;;9.60;5.72;;;5.50;99.90;;;;;;5089468;28;20047;-61
2022/12/05 04:55:11;;;;;;;10.10;5.53;;;5.50;99.90;;;;;;5086336;28;20087;-60
2022/12/05 04:57:48;;;;;;;10.80;5.38;;;5.50;99.90;;;;;;5087853;28;20051;-60
2022/12/05 05:00:15;;;;;;;10.57;5.55;;;5.50;99.90;;;;;;5106364;28;20409;-60
2022/12/05 05:02:54;;;;;;;13.13;5.72;;;5.50;99.90;;;;;;5106145;28;20054;-60
2022/12/05 05:05:22;;;;;;;12.02;6.60;;;5.50;99.90;;;;;;5106622;28;20073;-60
2022/12/05 05:07:52;;;;;;;9.32;5.00;;;5.50;99.90;;;;;;5104510;28;20489;-60
2022/12/05 05:10:20;;;;;;;;;;;5.40;99.90;;;;;;5119168;28;20058;-60
2022/12/05 05:12:46;;;;;;;6.25;4.57;;;5.50;99.90;;;;;;5108265;28;19997;-61
2022/12/05 05:15:11;;;;;;;7.72;4.70;;;5.40;99.90;;;;;;5105932;28;20509;-61
2022/12/05 05:17:37;;;;;;;11.98;5.13;;;5.50;99.90;;;;;;5106072;28;20040;-61
2022/12/05 05:22:48;;;;;;;7.88;5.07;;;5.40;99.90;;;;;;5111710;28;20570;-61
2022/12/05 05:25:14;;;;;;;10.57;5.00;;;5.50;99.90;;;;;;5116857;28;20050;-60
2022/12/05 05:27:40;;;;;;;9.77;5.30;;;5.50;99.90;;;;;;5105926;28;20043;-61
2022/12/05 05:30:12;;;;;;;12.32;5.28;;;5.50;99.90;;;;;;5120553;27;20064;-61
2022/12/05 05:32:38;;;;;;;13.35;4.85;;;5.50;99.90;;;;;;5129535;27;20436;-61
2022/12/05 05:35:03;;;;;;;7.18;5.38;;;5.50;99.90;;;;;;5109673;28;20049;-61
2022/12/05 05:37:29;;;;;;;11.52;5.65;;;5.50;99.90;;;;;;5090225;28;20078;-61
2022/12/05 05:39:55;;;;;;;7.15;4.80;;;5.50;99.90;;;;;;5110829;27;20142;-61
2022/12/05 05:42:20;;;;;;;12.32;5.20;;;5.40;99.90;;;;;;5108698;28;20048;-61
2022/12/05 05:44:46;;;;;;;11.18;4.22;;;5.50;99.90;;;;;;5117476;27;20473;-61
2022/12/05 05:47:12;;;;;;;8.13;5.68;;;5.50;99.90;;;;;;5103527;28;20052;-61
2022/12/05 05:49:37;;;;;;;13.43;4.75;;;5.50;99.90;;;;;;5109431;28;20058;-61
2022/12/05 05:52:03;;;;;;;9.23;4.20;;;5.50;99.90;;;;;;5108927;28;20036;-61
2022/12/05 05:54:29;;;;;;;11.30;5.25;;;5.50;99.90;;;;;;5123280;27;20481;-61
2022/12/05 05:56:55;;;;;;;13.35;5.75;;;5.50;99.90;;;;;;5111431;27;20436;-61
2022/12/05 05:59:20;;;;;;;13.77;4.53;;;5.50;99.90;;;;;;5108052;28;20081;-61
2022/12/05 06:01:46;;;;;;;11.88;5.28;;;5.50;99.90;;;;;;5098235;27;20046;-61
2022/12/05 06:04:12;;;;;;;16.08;5.97;;;5.50;99.90;;;;;;5096693;28;20119;-61
2022/12/05 06:06:39;;;;;;;15.52;5.90;;;5.50;99.90;;;;;;5109151;28;20513;-61
2022/12/05 06:09:06;;;;;;;15.35;5.85;;;5.50;99.90;;;;;;5109975;27;20047;-61
2022/12/05 06:11:31;;;;;;;13.70;4.88;;;5.50;99.90;;;;;;5121297;27;20046;-61
2022/12/05 06:14:01;;;;;;;12.18;5.38;;;5.50;99.90;;;;;;5109922;27;20048;-60
2022/12/05 06:16:29;;;;;;;11.05;5.75;;;5.50;99.90;;;;;;5114533;27;20396;-61
2022/12/05 06:18:55;;;;;;;24.83;6.57;;;5.50;99.90;;;;;;5097690;28;20386;-61
2022/12/05 06:21:21;;;;;;;18.67;6.25;;;5.50;99.90;;;;;;5107857;28;20059;-61
2022/12/05 06:23:47;;;;;;;16.45;6.30;;;5.50;99.90;;;;;;5121803;27;20047;-61
2022/12/05 06:26:17;;;;;;;12.07;5.85;;;5.50;99.90;;;;;;5111199;27;20043;-61
2022/12/05 06:28:43;;;;;;;17.77;6.93;;;5.50;99.90;;;;;;5108291;28;20044;-61
2022/12/05 06:31:12;;;;;;;15.48;6.43;;;5.40;99.90;;;;;;5092101;27;20504;-61
2022/12/05 06:33:38;;;;;;;15.48;6.50;;;5.40;99.90;;;;;;5120112;27;20043;-61
2022/12/05 06:36:09;;;;;;;20.65;6.45;;;5.40;99.90;;;;;;5090548;28;20150;-61
2022/12/05 06:38:36;;;;;;;14.13;6.50;;;5.40;99.90;;;;;;5107603;28;20082;-61
2022/12/05 06:41:06;;;;;;;18.48;7.07;;;5.40;99.90;;;;;;5119867;27;20065;-61
2022/12/05 06:43:32;;;;;;;21.58;8.98;;;5.50;99.90;;;;;;5095236;27;20074;-61
2022/12/05 06:45:58;;;;;;;17.50;7.05;;;5.40;99.90;;;;;;5128129;27;20075;-61
2022/12/05 06:48:24;;;;;;;17.85;7.32;;;5.40;99.90;;;;;;5111249;27;20043;-61
2022/12/05 06:50:51;;;;;;;17.65;6.55;;;5.50;99.90;;;;;;5100049;28;20104;-61
2022/12/05 06:53:18;;;;;;;20.58;7.07;;;5.40;99.90;;;;;;5108291;28;20489;-61
2022/12/05 06:55:54;;;;;;;16.45;6.70;;;5.40;99.90;;;;;;5107154;28;20047;-61
2022/12/05 06:58:20;;;;;;;15.80;6.90;;;5.40;99.90;;;;;;5108367;28;20048;-61
2022/12/05 07:03:29;;;;;;;21.50;8.00;;;5.40;99.90;;;;;;5107417;28;20126;-61
2022/12/05 07:05:58;;;;;;;20.75;7.50;;;5.40;99.90;;;;;;5108060;28;20127;-61
2022/12/05 07:08:24;;;;;;;18.63;6.70;;;5.40;99.90;;;;;;5071806;28;20063;-61
2022/12/05 07:10:51;;;;;;;19.58;6.95;;;5.40;99.90;;;;;;5122769;27;20488;-61
2022/12/05 07:13:17;;;;;;;19.13;7.30;;;5.30;99.90;;;;;;5106637;27;20125;-61
2022/12/05 07:15:46;;;;;;;14.98;6.95;;;5.40;99.90;;;;;;5107768;28;20043;-61
2022/12/05 07:18:13;;;;;;;18.02;6.78;;;5.40;99.90;;;;;;5107346;28;20039;-61
2022/12/05 07:20:39;;;;;;;18.23;7.43;;;5.40;99.90;;;;;;5107225;28;20111;-61
2022/12/05 07:23:05;;;;;;;18.52;7.82;;;5.40;99.90;;;;;;5088830;28;20635;-61
2022/12/05 07:25:31;;;;;;;14.48;7.05;;;5.40;99.90;;;;;;5107460;27;20111;-61
2022/12/05 07:27:58;;;;;;;24.67;6.80;;;5.40;99.90;;;;;;5107810;28;20034;-61
2022/12/05 07:30:24;;;;;;;15.55;7.47;;;5.40;99.90;;;;;;5087959;28;20047;-61
2022/12/05 07:32:50;;;;;;;15.95;6.85;;;5.40;99.90;;;;;;5122722;27;20092;-61
2022/12/05 07:35:16;;;;;;;10.93;6.72;;;5.50;99.90;;;;;;5106476;28;20087;-61
2022/12/05 07:37:41;;;;;;;18.55;7.15;;;5.40;99.90;;;;;;5108300;27;20054;-61
2022/12/05 07:40:07;;;;;;;12.63;7.03;;;5.40;99.90;;;;;;5106587;28;20051;-61
2022/12/05 07:42:33;;;;;;;13.82;6.05;;;5.40;99.90;;;;;;5106189;28;20043;-61
2022/12/05 07:45:00;;;;;;;13.13;6.80;;;5.50;99.90;;;;;;5107444;28;20054;-61
2022/12/05 07:47:29;;;;;;;14.77;5.28;;;5.40;99.90;;;;;;5106183;28;20154;-61
2022/12/05 07:49:55;;;;;;;17.42;6.80;;;5.40;99.90;;;;;;5089955;27;20417;-61
2022/12/05 07:52:21;;;;;;;16.33;4.90;;;5.40;99.90;;;;;;5125749;27;20035;-61
2022/12/05 07:54:46;;;;;;;9.48;5.65;;;5.40;99.90;;;;;;5112885;27;20093;-61
2022/12/05 07:57:12;;;;;;;11.40;5.55;;;5.40;99.90;;;;;;5105381;28;20048;-61
2022/12/05 07:59:38;;;;;;;13.68;6.10;;;5.40;99.90;;;;;;5106501;28;20043;-61
2022/12/05 08:02:03;;;;;;;22.48;5.78;;;5.40;99.90;;;;;;5107289;28;20374;-61
2022/12/05 08:04:29;;;;;;;13.82;5.55;;;5.40;99.90;;;;;;5124165;27;20396;-61
2022/12/05 08:06:55;;;;;;;13.20;7.03;;;5.40;99.90;;;;;;5111423;27;20051;-61
2022/12/05 08:09:20;;;;;;;10.77;5.78;;;5.40;99.90;;;;;;5093226;27;20365;-61
2022/12/05 08:11:46;;;;;;;13.40;6.40;;;5.40;99.90;;;;;;5117440;27;20113;-61
2022/12/05 08:14:12;;;;;;;7.15;4.78;;;5.40;99.90;;;;;;5087321;28;20047;-61
2022/12/05 08:16:38;;;;;;;13.73;7.07;;;5.40;99.90;;;;;;5113095;27;20070;-61
2022/12/05 08:19:06;;;;;;;10.77;6.15;;;5.40;99.90;;;;;;5111281;27;20072;-61
2022/12/05 08:21:32;;;;;;;12.10;5.65;;;5.40;99.90;;;;;;5116084;27;20053;-61
2022/12/05 08:23:58;;;;;;;14.55;6.63;;;5.40;99.90;;;;;;5112433;27;20043;-61
2022/12/05 08:26:29;;;;;;;15.88;6.10;;;5.40;99.90;;;;;;5099328;28;20089;-61
2022/12/05 08:28:57;;;;;;;23.08;8.27;;;5.40;99.90;;;;;;5114177;27;20062;-61
2022/12/05 08:31:25;;;;;;;14.65;6.15;;;5.40;99.90;;;;;;5118054;27;20047;-61
2022/12/05 08:33:52;;;;;;;8.93;4.22;;;5.40;99.90;;;;;;5108436;28;20400;-61
2022/12/05 08:36:18;;;;;;;9.80;5.30;;;5.40;99.90;;;;;;5115957;28;20501;-61
2022/12/05 08:38:45;;;;;;;14.52;7.28;;;5.40;99.90;;;;;;5122518;28;20092;-61
2022/12/05 08:41:13;;;;;;;9.90;6.65;;;5.40;99.90;;;;;;5127018;28;20084;-61
2022/12/05 08:43:39;;;;;;;11.70;6.45;;;5.40;99.90;;;;;;5100403;28;20089;-61
2022/12/05 08:46:05;;;;;;;15.07;7.45;;;5.40;99.90;;;;;;5119185;28;20035;-61
2022/12/05 08:48:31;;;;;;;17.10;7.47;;;5.40;99.90;;;;;;5115656;28;20031;-61
2022/12/05 08:50:58;;;;;;;13.02;5.90;;;5.50;99.90;;;;;;5113528;28;20040;-61
2022/12/05 08:53:25;;;;;;;18.20;7.68;;;5.40;99.90;;;;;;5112969;28;20040;-61
2022/12/05 08:55:51;;;;;;;20.40;7.57;;;5.40;99.90;;;;;;5112604;28;20097;-61
2022/12/05 08:58:16;;;;;;;13.60;7.20;;;5.50;99.90;;;;;;5126870;28;20066;-61
2022/12/05 09:00:42;;;;;;;12.77;7.38;;;5.50;99.90;;;;;;5104312;28;20413;-61
2022/12/05 09:03:11;;;;;;;14.00;6.97;;;5.50;99.90;;;;;;5098245;27;20055;-61
2022/12/05 09:05:37;;;;;;;12.57;6.45;;;5.50;99.90;;;;;;5121151;27;20404;-61
2022/12/05 09:08:03;;;;;;;13.27;5.97;;;5.50;99.90;;;;;;5114127;27;20032;-61
2022/12/05 09:10:29;;;;;;;10.63;6.05;;;5.50;99.90;;;;;;5095645;28;20057;-62
2022/12/05 09:12:55;;;;;;;13.55;6.55;;;5.50;99.90;;;;;;5113710;27;20127;-61
2022/12/05 09:15:21;;;;;;;16.58;7.18;;;5.50;99.90;;;;;;5110021;27;20066;-61
2022/12/05 09:17:47;;;;;;;12.75;6.38;;;5.50;99.90;;;;;;5124497;27;20389;-61
2022/12/05 09:20:13;;;;;;;15.93;6.10;;;5.50;99.90;;;;;;5118603;27;20389;-61
2022/12/05 09:22:42;;;;;;;9.10;5.63;;;5.50;99.90;;;;;;5111879;27;20059;-61
2022/12/05 09:25:08;;;;;;;14.60;7.18;;;5.50;99.90;;;;;;5114588;27;20551;-61
2022/12/05 09:27:34;;;;;;;15.63;6.50;;;5.50;99.90;;;;;;5113230;27;20218;-61
2022/12/05 09:30:00;;;;;;;10.82;5.80;;;5.50;99.90;;;;;;5109910;27;20101;-61
2022/12/05 09:32:26;;;;;;;13.65;6.78;;;5.50;99.90;;;;;;5096667;27;20562;-61
2022/12/05 09:34:51;;;;;;;11.43;6.10;;;5.50;99.90;;;;;;5084195;28;20051;-61
2022/12/05 09:37:19;;;;;;;12.95;6.03;;;5.50;99.90;;;;;;5112968;27;20043;-61
2022/12/05 09:39:44;;;;;;;13.80;5.53;;;5.50;99.90;;;;;;5111496;27;20047;-61
2022/12/05 09:42:22;;;;;;;14.18;6.15;;;5.50;99.90;;;;;;5109873;27;20047;-61
2022/12/05 09:45:13;;;;;;;11.57;6.13;;;5.50;99.90;;;;;;5104900;27;20477;-62
2022/12/05 09:47:48;;;;;;;8.77;5.82;;;5.50;99.90;;;;;;5113029;27;20126;-61
2022/12/05 09:50:25;;;;;;;9.57;5.28;;;5.50;99.90;;;;;;5126502;27;20112;-61
2022/12/05 09:53:12;;;;;;;11.40;5.80;;;5.50;99.90;;;;;;5116782;27;20043;-61
2022/12/05 09:55:59;;;;;;;8.73;5.80;;;5.50;99.90;;;;;;5116220;27;20047;-61
2022/12/05 09:58:46;;;;;;;7.80;4.47;;;5.60;99.90;;;;;;5110461;27;20054;-61
2022/12/05 10:01:41;;;;;;;14.25;5.70;;;5.50;99.90;;;;;;5081448;27;20050;-61
2022/12/05 10:04:34;;;;;;;8.57;5.63;;;5.50;99.90;;;;;;5100449;27;20055;-61
2022/12/05 10:07:14;;;;;;;10.70;5.47;;;5.50;99.90;;;;;;5115105;27;20050;-61
2022/12/05 10:10:17;;;;;;;9.82;5.97;;;5.50;99.90;;;;;;5096773;28;20047;-61
2022/12/05 10:12:58;;;;;;;10.85;5.35;;;5.50;99.90;;;;;;5120209;27;20137;-61
2022/12/05 10:15:42;;;;;;;8.50;4.32;;;5.50;99.90;;;;;;5093946;28;20447;-61
2022/12/05 10:18:32;;;;;;;9.85;5.95;;;5.60;99.90;;;;;;5112284;27;20096;-61
2022/12/05 10:20:57;;;;;;;10.38;4.93;;;5.50;99.90;;;;;;5120972;27;20054;-61
2022/12/05 10:23:33;;;;;;;8.55;5.18;;;5.50;99.90;;;;;;5094573;28;20048;-61
2022/12/05 10:26:03;;;;;;;12.60;5.78;;;5.50;99.90;;;;;;5097813;28;20143;-61
2022/12/05 10:28:41;;;;;;;6.97;4.87;;;5.50;99.90;;;;;;5104571;28;20121;-61
2022/12/05 10:31:12;;;;;;;8.60;5.30;;;5.50;99.90;;;;;;5102495;28;20051;-61
2022/12/05 10:33:44;;;;;;;9.90;6.25;;;5.50;99.90;;;;;;5101370;28;20056;-61
2022/12/05 10:36:12;;;;;;;14.18;5.80;;;5.50;99.90;;;;;;5095665;28;20058;-61
2022/12/05 10:38:40;;;;;;;9.50;5.03;;;5.50;99.90;;;;;;5104621;28;20040;-61
2022/12/05 10:41:11;;;;;;;12.43;5.90;;;5.50;99.90;;;;;;5100221;28;20560;-61
2022/12/05 10:43:44;;;;;;;10.32;5.30;;;5.50;99.90;;;;;;5101203;28;20070;-61
2022/12/05 10:46:12;;;;;;;12.43;5.28;;;5.50;99.90;;;;;;5104809;28;20176;-61
2022/12/05 10:48:40;;;;;;;8.60;4.90;;;5.50;99.90;;;;;;5106054;28;20126;-61
2022/12/05 10:51:13;;;;;;;9.02;4.80;;;5.50;99.90;;;;;;5107280;28;20552;-61
2022/12/05 10:53:50;;;;;;;9.98;5.05;;;5.50;99.90;;;;;;5093704;28;20520;-61
2022/12/05 10:56:35;;;;;;;13.27;4.57;;;5.50;99.90;;;;;;5100640;28;20181;-61
2022/12/05 10:59:01;;;;;;;8.88;4.95;;;5.50;99.90;;;;;;5098972;28;20138;-61
2022/12/05 11:01:27;;;;;;;8.27;4.90;;;5.50;99.90;;;;;;5096570;28;20135;-61
2022/12/05 11:04:20;;;;;;;14.13;5.30;;;5.50;99.90;;;;;;5091053;28;20561;-61
2022/12/05 11:06:51;;;;;;;12.65;5.00;;;5.50;99.90;;;;;;5089556;28;20497;-61
2022/12/05 11:09:25;;;;;;;12.52;5.30;;;5.40;99.90;;;;;;5092703;28;20036;-61
2022/12/05 11:12:08;;;;;;;9.35;4.65;;;5.40;99.90;;;;;;5091106;28;20504;-61
2022/12/05 11:14:35;;;;;;;15.13;5.10;;;5.50;99.90;;;;;;5091809;28;20061;-61
2022/12/05 11:17:03;;;;;;;7.43;5.20;;;5.40;99.90;;;;;;5094969;28;20118;-61
2022/12/05 11:19:38;;;;;;;10.10;4.80;;;5.40;99.90;;;;;;5092010;28;20046;-60
2022/12/05 11:22:06;;;;;;;10.38;4.78;;;5.40;99.90;;;;;;5090409;28;20517;-61
2022/12/05 11:24:32;;;;;;;7.85;4.25;;;5.40;99.90;;;;;;5092963;27;20036;-61
2022/12/05 11:27:17;;;;;;;9.38;4.50;;;5.40;99.90;;;;;;5091706;28;20047;-61
2022/12/05 11:29:52;;;;;;;11.35;4.97;;;5.40;99.90;;;;;;5098692;28;20087;-61
2022/12/05 11:32:20;;;;;;;10.15;4.65;;;5.40;99.90;;;;;;5108181;27;20024;-61
2022/12/05 11:35:07;;;;;;;10.77;4.60;;;5.40;99.90;;;;;;5096139;28;20044;-61
2022/12/05 11:38:04;;;;;;;11.30;5.25;;;5.40;99.90;;;;;;5095035;28;20100;-61
2022/12/05 11:40:57;;;;;;;9.18;4.93;;;5.50;99.90;;;;;;5089207;28;20052;-61
2022/12/05 11:43:49;;;;;;;8.48;4.80;;;5.40;99.90;;;;;;5049203;28;20059;-61
2022/12/05 11:46:46;;;;;;;7.22;3.70;;;5.40;99.90;;;;;;5090706;28;20499;-61
2022/12/05 11:49:29;;;;;;;12.43;4.35;;;5.40;99.90;;;;;;5095751;28;20047;-61
2022/12/05 11:52:18;;;;;;;6.93;4.50;;;5.40;99.90;;;;;;5095050;28;20478;-61
2022/12/05 11:54:56;;;;;;;11.55;4.30;;;5.40;99.90;;;;;;5090451;28;20044;-61
2022/12/05 11:57:44;;;;;;;9.90;4.13;;;5.40;99.90;;;;;;5091072;28;20047;-61
2022/12/05 12:00:23;;;;;;;6.40;4.05;;;5.40;99.90;;;;;;5097479;28;20047;-61
2022/12/05 12:03:09;;;;;;;6.90;4.40;;;5.40;99.90;;;;;;5094742;28;20055;-61
2022/12/05 12:05:53;;;;;;;12.70;5.05;;;5.40;99.90;;;;;;5089857;28;20077;-61
2022/12/05 12:08:32;;;;;;;8.57;4.50;;;5.40;99.90;;;;;;5105493;28;20048;-61
2022/12/05 12:11:17;;;;;;;8.75;4.97;;;5.40;99.90;;;;;;5102059;28;20048;-61
2022/12/05 12:14:25;;;;;;;8.25;4.38;;;5.40;99.90;;;;;;5091827;28;20394;-61
2022/12/05 12:17:15;;;;;;;11.05;4.93;;;5.40;99.90;;;;;;5092121;28;20446;-61
2022/12/05 12:19:54;;;;;;;14.23;4.27;;;5.40;99.90;;;;;;5085351;28;20047;-61
2022/12/05 12:22:54;;;;;;;7.03;3.90;;;5.40;99.90;;;;;;5095775;27;20651;-61
2022/12/05 12:25:34;;;;;;;8.95;4.18;;;5.30;99.90;;;;;;5110594;27;20091;-61
2022/12/05 12:28:31;;;;;;;8.77;4.00;;;5.40;99.90;;;;;;5112595;27;20062;-61
2022/12/05 12:31:24;;;;;;;9.10;4.65;;;5.50;99.90;;;;;;5115898;27;20477;-61
2022/12/05 12:34:21;;;;;;;9.40;4.05;;;5.50;99.90;;;;;;5113564;27;20047;-61
2022/12/05 12:37:15;;;;;;;5.45;3.95;;;5.50;99.90;;;;;;5106413;28;20062;-61
2022/12/05 12:39:47;;;;;;;7.90;4.15;;;5.50;99.90;;;;;;5107351;28;20165;-61
2022/12/05 12:42:48;;;;;;;6.50;3.40;;;5.50;99.90;;;;;;5114958;28;20050;-61
2022/12/05 12:45:19;;;;;;;7.15;3.42;;;5.50;99.90;;;;;;5038139;28;20040;-61
2022/12/05 12:48:19;;;;;;;7.95;3.75;;;5.50;99.90;;;;;;5108402;28;20059;-61
2022/12/05 12:50:51;;;;;;;9.73;3.70;;;5.50;99.90;;;;;;5103643;28;20067;-61
2022/12/05 12:53:32;;;;;;;6.25;3.10;;;5.50;99.90;;;;;;5119950;28;20035;-61
2022/12/05 12:56:02;;;;;;;6.13;3.30;;;5.50;99.90;;;;;;5109178;28;20039;-61
2022/12/05 12:59:22;;;;;;;8.23;3.85;;;5.50;99.90;;;;;;5086709;28;20039;-61
2022/12/05 13:02:01;;;;;;;13.43;3.88;;;5.50;99.90;;;;;;5018805;28;20037;-61
2022/12/05 13:04:46;;;;;;;6.53;3.10;;;5.50;99.90;;;;;;5111927;28;20039;-61
2022/12/05 13:07:18;;;;;;;9.15;3.42;;;5.50;99.90;;;;;;5122157;28;20106;-61
2022/12/05 13:09:54;;;;;;;4.93;2.70;;;5.60;99.90;;;;;;5123666;28;20048;-61
2022/12/05 13:12:34;;;;;;;5.45;3.30;;;5.60;99.90;;;;;;5100195;28;20134;-61
2022/12/05 13:15:16;;;;;;;8.13;3.25;;;5.60;99.90;;;;;;5085774;28;20437;-62
2022/12/05 13:17:44;;;;;;;10.70;3.03;;;5.60;99.90;;;;;;5106981;28;20615;-62
2022/12/05 13:20:17;;;;;;;11.88;3.10;;;5.60;99.90;;;;;;5105841;28;20042;-62
2022/12/05 13:22:45;;;;;;;5.65;2.95;;;5.60;99.90;;;;;;5105686;28;20059;-62
2022/12/05 13:25:15;;;;;;;5.20;2.83;;;5.60;99.90;;;;;;5093514;28;20058;-62
2022/12/05 13:27:56;;;;;;;4.68;2.90;;;5.60;99.90;;;;;;5112146;28;20048;-62
2022/12/05 13:30:27;;;;;;;8.75;3.42;;;5.60;99.90;;;;;;5106232;28;20044;-62